Lucy Oldendorff — 9HA3178 — position and weather

sailwx.info

Track history (hours):
 
Tides and Currents Weather Stations Pressure Air Temp Water Temp Dewpoint Dewpoint Depression Visibility Wind Speed Wind Dir Waves Ship Positions

Lucy Oldendorff

Last reported at 2017-Dec-25 01:44 UTC. Time now 2018-Jan-20 03:08 UTC.
Position N 23°41' E 122°58'.
Warning: this ship's position is 26 days out of date.

Length 180 m; draft 9.5 m.

Type: Cargo ship. MMSI: 229258000.

Date/timePositionNaut miles runAvg speedWind from/ knotsBaromVisibWave heightAir tempDewpointWater temp
2017-Dec-25 01:44N 23°41' E 122°58'312.3
2017-Dec-25 01:30N 23°44' E 122°59'612.0
2017-Dec-25 01:01N 23°49' E 123°02'612.0
2017-Dec-25 00:31N 23°55' E 123°05'612.1
2017-Dec-25 00:01N 23°60' E 123°08'612.2
2017-Dec-24 23:31N 24°06' E 123°11'612.2
2017-Dec-24 23:00N 24°11' E 123°14'612.1
2017-Dec-24 22:30N 24°17' E 123°16'612.2
2017-Dec-24 22:00N 24°22' E 123°19'612.4
2017-Dec-24 21:31N 24°28' E 123°22'612.4
2017-Dec-24 21:00N 24°33' E 123°25'612.7
2017-Dec-24 20:30N 24°39' E 123°28'612.2
2017-Dec-24 20:01N 24°44' E 123°31'611.6
2017-Dec-24 19:30N 24°50' E 123°34'611.8
2017-Dec-24 19:01N 24°55' E 123°36'  
Track history (hours):
 
Tides and Currents Weather Stations Pressure Air Temp Water Temp Dewpoint Dewpoint Depression Visibility Wind Speed Wind Dir Waves Ship Positions

Lucy Oldendorff

Last reported at 2017-Dec-25 01:44 UTC. Time now 2018-Jan-20 03:08 UTC.
Position N 23°41' E 122°58'.
Warning: this ship's position is 26 days out of date.

Length 180 m; draft 9.5 m.

Type: Cargo ship. MMSI: 229258000.

Date/timePositionNaut miles runAvg speedWind from/ knotsBaromVisibWave heightAir tempDewpointWater temp
2017-Dec-25 01:44N 23°41' E 122°58'312.3
2017-Dec-25 01:30N 23°44' E 122°59'612.0
2017-Dec-25 01:01N 23°49' E 123°02'612.0
2017-Dec-25 00:31N 23°55' E 123°05'612.1
2017-Dec-25 00:01N 23°60' E 123°08'612.2
2017-Dec-24 23:31N 24°06' E 123°11'612.2
2017-Dec-24 23:00N 24°11' E 123°14'612.1
2017-Dec-24 22:30N 24°17' E 123°16'612.2
2017-Dec-24 22:00N 24°22' E 123°19'612.4
2017-Dec-24 21:31N 24°28' E 123°22'612.4
2017-Dec-24 21:00N 24°33' E 123°25'612.7
2017-Dec-24 20:30N 24°39' E 123°28'612.2
2017-Dec-24 20:01N 24°44' E 123°31'611.6
2017-Dec-24 19:30N 24°50' E 123°34'611.8
2017-Dec-24 19:01N 24°55' E 123°36'  

Dump ship's entire track history